Rocky, Oklahoma
Current Conditions -  °F | °C
As of 7:53 PM on Saturday 22 Nov 2014 (Local Time) from KHBR Reporting Station
Clear Clear  
Wind Chill: 53°   Ceiling: Unl
Heat Index: 53°   Visibility: 10mi
Dew Point: 52°   Wind: 16mph
Humidity: 96%   Direction: 150°SSE
Pressure: 29.73"   Gusts: NA
Location:  35.16°N, 99.06°W
Report Text: KHBR 230153Z AUTO 15014KT 10SM CLR 12/11 A2973 RMK AO2 SLP063 T01170111
Loading
Personal Weather Stations






























Interactive Weather Map New forecast layout! Learn more

10-Day Weather Forecast

Advertisements
Track Severe Weather on mobile